createdAt,value
2018-06-14T00:02:08.167Z,5.57
2018-06-14T00:04:35.575Z,5.40
2018-06-14T00:07:02.894Z,5.67
2018-06-14T00:09:30.195Z,5.27
2018-06-14T00:11:57.617Z,5.40
2018-06-14T00:14:24.999Z,4.77
2018-06-14T00:16:52.304Z,2.20
2018-06-14T00:19:19.672Z,2.73
2018-06-14T00:21:47.108Z,4.00
2018-06-14T00:24:14.410Z,4.17
2018-06-14T00:26:41.732Z,4.20
2018-06-14T00:29:09.196Z,5.23
2018-06-14T00:31:36.550Z,5.50
2018-06-14T00:34:03.912Z,5.17
2018-06-14T00:36:31.267Z,7.20
2018-06-14T00:38:58.563Z,5.33
2018-06-14T00:41:26.059Z,4.20
2018-06-14T00:43:53.375Z,8.13
2018-06-14T00:46:20.718Z,4.40
2018-06-14T00:48:48.027Z,7.27
2018-06-14T00:51:15.709Z,4.60
2018-06-14T00:53:43.099Z,4.70
2018-06-14T00:56:10.546Z,5.40
2018-06-14T00:58:37.962Z,5.57
2018-06-14T01:01:05.301Z,5.17
2018-06-14T01:03:32.602Z,5.63
2018-06-14T01:06:00.081Z,4.80
2018-06-14T01:08:27.479Z,5.13
2018-06-14T01:10:55.139Z,5.97
2018-06-14T01:13:22.451Z,4.00
2018-06-14T01:15:49.790Z,3.27
2018-06-14T01:18:17.184Z,3.07
2018-06-14T01:20:44.490Z,6.03
2018-06-14T01:23:11.919Z,4.90
2018-06-14T01:25:39.327Z,3.97
2018-06-14T01:28:06.723Z,5.20
2018-06-14T01:30:34.292Z,5.60
2018-06-14T01:33:01.707Z,5.47
2018-06-14T01:35:29.029Z,5.13
2018-06-14T01:38:01.900Z,8.43
2018-06-14T01:40:29.438Z,5.40
2018-06-14T01:42:56.782Z,5.83
2018-06-14T01:45:24.140Z,7.43
2018-06-14T01:47:51.479Z,7.00
2018-06-14T01:50:18.836Z,7.13
2018-06-14T01:52:46.227Z,7.43
2018-06-14T01:55:13.651Z,7.40
2018-06-14T01:57:41.100Z,5.87
2018-06-14T02:00:08.427Z,7.73
2018-06-14T02:02:35.861Z,7.67
2018-06-14T02:05:03.268Z,7.70
2018-06-14T02:07:30.575Z,9.30
2018-06-14T02:09:57.898Z,7.30
2018-06-14T02:12:25.238Z,8.70
2018-06-14T02:14:52.707Z,9.13
2018-06-14T02:17:20.104Z,8.83
2018-06-14T02:19:47.494Z,8.07
2018-06-14T02:22:14.974Z,8.87
2018-06-14T02:24:42.265Z,9.43
2018-06-14T02:27:09.688Z,8.80
2018-06-14T02:29:37.015Z,9.03
2018-06-14T02:32:04.403Z,9.37
2018-06-14T02:34:31.740Z,9.17
2018-06-14T02:36:59.147Z,9.10
2018-06-14T02:39:26.472Z,7.77
2018-06-14T02:41:54.113Z,7.80
2018-06-14T02:44:21.720Z,8.23
2018-06-14T02:46:49.295Z,9.13
2018-06-14T02:49:16.625Z,9.60
2018-06-14T02:51:43.960Z,12.73
2018-06-14T02:54:11.476Z,8.70
2018-06-14T02:56:38.847Z,10.43
2018-06-14T02:59:06.196Z,9.10
2018-06-14T03:01:33.583Z,8.40
2018-06-14T03:04:00.916Z,9.93
2018-06-14T03:06:28.364Z,9.33
2018-06-14T03:08:55.727Z,9.17
2018-06-14T03:11:23.119Z,9.90
2018-06-14T03:13:50.432Z,9.00
2018-06-14T03:16:17.768Z,12.43
2018-06-14T03:18:45.279Z,8.53
2018-06-14T03:21:12.922Z,9.83
2018-06-14T03:23:40.299Z,8.57
2018-06-14T03:26:07.731Z,8.00
2018-06-14T03:28:35.188Z,9.03
2018-06-14T03:31:02.725Z,13.27
2018-06-14T03:33:30.024Z,10.00
2018-06-14T03:35:57.400Z,7.50
2018-06-14T03:38:25.723Z,8.87
2018-06-14T03:40:53.081Z,8.10
2018-06-14T03:43:20.371Z,8.03
2018-06-14T03:45:47.883Z,8.97
2018-06-14T03:48:15.218Z,9.90
2018-06-14T03:50:42.528Z,12.80
2018-06-14T03:53:09.845Z,9.27
2018-06-14T03:55:37.154Z,9.87
2018-06-14T03:58:04.472Z,9.17
2018-06-14T04:00:31.787Z,10.43
2018-06-14T04:02:59.103Z,11.13
2018-06-14T04:05:26.435Z,9.90
2018-06-14T04:07:53.759Z,11.73
2018-06-14T04:10:21.151Z,14.67
2018-06-14T04:12:48.471Z,13.20
2018-06-14T04:15:15.808Z,11.53
2018-06-14T04:17:47.471Z,11.53
2018-06-14T04:20:14.976Z,11.47
2018-06-14T04:22:42.523Z,14.83
2018-06-14T04:25:09.864Z,12.97
2018-06-14T04:27:37.187Z,13.87
2018-06-14T04:30:04.782Z,12.60
2018-06-14T04:32:32.187Z,12.37
2018-06-14T04:34:59.588Z,15.80
2018-06-14T04:37:27.130Z,14.00
2018-06-14T04:39:54.472Z,13.83
2018-06-14T04:42:21.860Z,13.53
2018-06-14T04:44:49.279Z,13.60
2018-06-14T04:47:16.609Z,13.97
2018-06-14T04:49:43.917Z,12.97
2018-06-14T04:52:11.254Z,13.83
2018-06-14T04:54:38.799Z,14.70
2018-06-14T04:57:06.167Z,14.83
2018-06-14T04:59:33.531Z,14.53
2018-06-14T05:02:01.097Z,14.40
2018-06-14T05:04:28.447Z,14.73
2018-06-14T05:06:55.791Z,13.93
2018-06-14T05:09:23.135Z,15.30
2018-06-14T05:11:50.512Z,15.00
2018-06-14T05:14:17.979Z,14.10
2018-06-14T05:16:45.421Z,13.10
2018-06-14T05:19:12.760Z,12.87
2018-06-14T05:21:40.095Z,16.40
2018-06-14T05:24:07.488Z,12.60
2018-06-14T05:26:34.816Z,17.77
2018-06-14T05:29:02.894Z,14.23
2018-06-14T05:31:30.186Z,15.60
2018-06-14T05:33:57.591Z,18.03
2018-06-14T05:36:24.962Z,15.90
2018-06-14T05:38:52.302Z,15.23
2018-06-14T05:41:19.626Z,16.67
2018-06-14T05:43:46.918Z,11.90
2018-06-14T05:46:14.379Z,14.57
2018-06-14T05:48:41.925Z,11.83
2018-06-14T05:51:09.274Z,11.73
2018-06-14T05:53:36.584Z,11.23
2018-06-14T05:56:04.243Z,14.37
2018-06-14T05:58:32.060Z,15.10
2018-06-14T06:00:59.375Z,11.97
2018-06-14T06:03:26.708Z,11.40
2018-06-14T06:05:54.031Z,12.10
2018-06-14T06:08:21.363Z,12.60
2018-06-14T06:10:48.679Z,13.43
2018-06-14T06:13:15.997Z,11.97
2018-06-14T06:15:43.520Z,17.83
2018-06-14T06:18:10.943Z,12.73
2018-06-14T06:20:38.339Z,9.80
2018-06-14T06:23:05.724Z,12.73
2018-06-14T06:25:33.216Z,10.20
2018-06-14T06:28:00.553Z,8.33
2018-06-14T06:30:28.190Z,9.20
2018-06-14T06:32:55.524Z,12.30
2018-06-14T06:35:22.887Z,9.70
2018-06-14T06:37:50.236Z,9.10
2018-06-14T06:40:17.575Z,9.70
2018-06-14T06:42:44.947Z,9.77
2018-06-14T06:45:12.324Z,10.77
2018-06-14T06:47:39.868Z,9.50
2018-06-14T06:50:07.216Z,10.40
2018-06-14T06:52:34.628Z,9.40
2018-06-14T06:55:02.012Z,11.90
2018-06-14T06:57:29.322Z,9.20
2018-06-14T06:59:56.662Z,9.27
2018-06-14T07:02:23.967Z,12.90
2018-06-14T07:04:51.342Z,8.37
2018-06-14T07:07:18.664Z,9.23
2018-06-14T07:09:45.960Z,10.33
2018-06-14T07:12:13.295Z,8.40
2018-06-14T07:14:40.704Z,11.17
2018-06-14T07:17:08.019Z,7.70
2018-06-14T07:19:35.367Z,9.57
2018-06-14T07:22:02.720Z,8.30
2018-06-14T07:24:30.060Z,10.53
2018-06-14T07:26:57.419Z,9.03
2018-06-14T07:29:24.798Z,10.40
2018-06-14T07:31:52.167Z,11.73
2018-06-14T07:34:19.488Z,8.90
2018-06-14T07:36:46.859Z,9.47
2018-06-14T07:39:14.173Z,11.97
2018-06-14T07:41:41.665Z,8.47
2018-06-14T07:44:10.183Z,9.70
2018-06-14T07:46:37.502Z,9.50
2018-06-14T07:49:04.834Z,13.27
2018-06-14T07:51:33.040Z,10.47
2018-06-14T07:54:00.588Z,8.63
2018-06-14T07:56:27.931Z,10.93
2018-06-14T07:58:55.763Z,15.17
2018-06-14T08:01:23.128Z,11.70
2018-06-14T08:03:50.503Z,9.07
2018-06-14T08:06:17.847Z,7.23
2018-06-14T08:08:45.240Z,10.87
2018-06-14T08:11:12.540Z,7.40
2018-06-14T08:13:39.914Z,10.53
2018-06-14T08:16:07.281Z,8.53
2018-06-14T08:18:34.592Z,10.77
2018-06-14T08:21:02.206Z,11.30
2018-06-14T08:23:29.735Z,8.53
2018-06-14T08:25:57.207Z,11.30
2018-06-14T08:28:24.527Z,8.73
2018-06-14T08:30:51.825Z,5.70
2018-06-14T08:33:19.172Z,9.73
2018-06-14T08:35:46.506Z,7.50
2018-06-14T08:38:13.815Z,8.93
2018-06-14T08:40:41.130Z,9.53
2018-06-14T08:43:08.439Z,7.03
2018-06-14T08:45:35.740Z,7.80
2018-06-14T08:48:03.089Z,5.63
2018-06-14T08:50:30.435Z,5.83
2018-06-14T08:52:57.923Z,7.20
2018-06-14T08:55:25.312Z,7.53
2018-06-14T08:57:52.643Z,8.90
2018-06-14T09:00:19.987Z,8.70
2018-06-14T09:02:47.327Z,6.33
2018-06-14T09:05:14.674Z,5.73
2018-06-14T09:07:42.230Z,4.47
2018-06-14T09:10:09.555Z,4.30
2018-06-14T09:12:37.264Z,4.50
2018-06-14T09:15:04.795Z,6.90
2018-06-14T09:17:32.235Z,5.17
2018-06-14T09:19:59.542Z,3.50
2018-06-14T09:22:27.066Z,3.53
2018-06-14T09:24:54.358Z,4.87
2018-06-14T09:27:21.774Z,6.73
2018-06-14T09:29:49.207Z,3.47
2018-06-14T09:32:16.591Z,7.23
2018-06-14T09:34:43.975Z,4.70
2018-06-14T09:37:11.312Z,5.30
2018-06-14T09:39:38.772Z,4.10
2018-06-14T09:42:06.190Z,3.90
2018-06-14T09:44:33.499Z,3.70
2018-06-14T09:47:00.995Z,3.13
2018-06-14T09:49:28.396Z,3.50
2018-06-14T09:51:55.731Z,3.20
2018-06-14T09:54:23.075Z,3.27
2018-06-14T09:56:50.556Z,3.20
2018-06-14T09:59:17.862Z,3.70
2018-06-14T10:01:45.195Z,3.40
2018-06-14T10:04:12.509Z,3.70
2018-06-14T10:06:39.861Z,4.80
2018-06-14T10:09:07.719Z,3.30
2018-06-14T10:11:35.080Z,4.17
2018-06-14T10:14:02.379Z,4.57
2018-06-14T10:16:29.770Z,7.23
2018-06-14T10:18:57.231Z,3.40
2018-06-14T10:21:24.535Z,6.17
2018-06-14T10:23:52.076Z,3.43
2018-06-14T10:26:19.378Z,2.83
2018-06-14T10:28:46.726Z,4.23
2018-06-14T10:31:14.221Z,4.00
2018-06-14T10:33:41.579Z,3.60
2018-06-14T10:36:08.952Z,3.83
2018-06-14T10:38:36.272Z,3.70
2018-06-14T10:41:03.642Z,4.13
2018-06-14T10:43:31.161Z,4.03
2018-06-14T10:45:58.427Z,3.70
2018-06-14T10:48:26.012Z,4.03
2018-06-14T10:50:53.674Z,3.00
2018-06-14T10:53:21.045Z,3.03
2018-06-14T10:55:48.360Z,4.13
2018-06-14T10:58:15.783Z,4.90
2018-06-14T11:00:43.078Z,4.03
2018-06-14T11:03:10.435Z,5.67
2018-06-14T11:05:37.742Z,3.80
2018-06-14T11:08:05.152Z,3.20
2018-06-14T11:10:32.480Z,5.60
2018-06-14T11:12:59.859Z,3.83
2018-06-14T11:15:27.614Z,4.30
2018-06-14T11:17:54.974Z,3.87
2018-06-14T11:20:22.373Z,3.67
2018-06-14T11:22:49.755Z,6.00
2018-06-14T11:25:17.196Z,4.13
2018-06-14T11:27:44.555Z,3.93
2018-06-14T11:30:11.871Z,3.20
2018-06-14T11:32:39.276Z,4.70
2018-06-14T11:35:06.612Z,6.07
2018-06-14T11:37:33.939Z,4.50
2018-06-14T11:40:01.295Z,5.00
2018-06-14T11:42:28.778Z,2.77
2018-06-14T11:44:56.132Z,4.60
2018-06-14T11:47:23.446Z,2.23
2018-06-14T11:49:50.790Z,4.70
2018-06-14T11:52:18.136Z,4.13
2018-06-14T11:54:45.923Z,4.17
2018-06-14T11:57:13.355Z,3.87
2018-06-14T11:59:40.711Z,2.23
2018-06-14T12:02:08.081Z,5.03
2018-06-14T12:04:35.611Z,3.07
2018-06-14T12:07:02.982Z,2.73
2018-06-14T12:09:30.340Z,3.77
2018-06-14T12:11:57.706Z,4.20
2018-06-14T12:14:25.046Z,3.43
2018-06-14T12:16:52.411Z,2.57
2018-06-14T12:19:19.891Z,3.07
2018-06-14T12:21:47.195Z,3.27
2018-06-14T12:24:14.515Z,4.13
2018-06-14T12:26:48.680Z,5.17
2018-06-14T12:29:16.094Z,3.10
2018-06-14T12:31:43.448Z,2.93
2018-06-14T12:34:10.947Z,4.47
2018-06-14T12:36:38.346Z,5.00
2018-06-14T12:39:07.102Z,2.83
2018-06-14T12:41:34.471Z,4.40
2018-06-14T12:44:01.800Z,3.20
2018-06-14T12:46:29.152Z,4.90
2018-06-14T12:48:56.463Z,3.60
2018-06-14T12:51:23.873Z,3.53
2018-06-14T12:53:51.202Z,4.00
2018-06-14T12:56:18.635Z,6.93
2018-06-14T12:58:46.095Z,6.50
2018-06-14T13:09:27.932Z,5.03
2018-06-14T13:11:55.459Z,6.50
2018-06-14T13:14:22.783Z,3.73
2018-06-14T13:16:50.131Z,3.57
2018-06-14T13:19:17.491Z,5.60
2018-06-14T13:21:44.874Z,5.03
2018-06-14T13:24:12.514Z,4.33
2018-06-14T13:26:39.743Z,2.60
2018-06-14T13:29:07.130Z,5.63
2018-06-14T13:31:34.390Z,3.37
2018-06-14T13:34:01.713Z,5.17
2018-06-14T13:36:29.274Z,3.30
2018-06-14T13:38:56.568Z,4.53
2018-06-14T13:41:23.976Z,7.07
2018-06-14T13:43:51.370Z,3.50
2018-06-14T13:46:18.807Z,3.17
2018-06-14T13:48:46.204Z,3.87
2018-06-14T13:51:13.609Z,6.50
2018-06-14T13:53:41.016Z,3.43
2018-06-14T13:56:08.324Z,4.37
2018-06-14T13:58:35.967Z,3.43
2018-06-14T14:01:03.431Z,5.47
2018-06-14T14:03:30.790Z,3.40
2018-06-14T14:05:58.125Z,4.03
2018-06-14T14:08:25.444Z,5.43
2018-06-14T14:10:52.977Z,8.00
2018-06-14T14:13:20.302Z,8.10
2018-06-14T14:15:47.768Z,8.40
2018-06-14T14:18:15.111Z,3.70
2018-06-14T14:20:42.798Z,5.43
2018-06-14T14:23:10.512Z,4.47
2018-06-14T14:25:37.800Z,4.30
2018-06-14T14:28:05.201Z,5.27
2018-06-14T14:30:32.512Z,7.73
2018-06-14T14:32:59.868Z,4.23
2018-06-14T14:35:27.204Z,6.53
2018-06-14T14:37:54.529Z,7.83
2018-06-14T14:40:21.975Z,7.33
2018-06-14T14:42:49.407Z,5.63
2018-06-14T14:45:16.710Z,7.90
2018-06-14T14:47:44.162Z,6.90
2018-06-14T14:50:11.439Z,6.17
2018-06-14T14:52:38.910Z,6.40
2018-06-14T14:55:06.496Z,6.47
2018-06-14T14:57:33.803Z,7.83
2018-06-14T15:00:01.145Z,7.90
2018-06-14T15:02:28.580Z,7.27
2018-06-14T15:04:55.996Z,12.20
2018-06-14T15:07:23.455Z,8.30
2018-06-14T15:09:50.809Z,8.47
2018-06-14T15:12:18.201Z,9.00
2018-06-14T15:14:45.526Z,9.07
2018-06-14T15:17:12.991Z,10.43
2018-06-14T15:19:40.327Z,11.50
2018-06-14T15:22:07.754Z,9.67
2018-06-14T15:24:35.097Z,10.47
2018-06-14T15:27:02.681Z,9.97
2018-06-14T15:29:30.320Z,9.77
2018-06-14T15:31:57.714Z,10.30
2018-06-14T15:34:25.040Z,10.67
2018-06-14T15:36:52.419Z,10.80
2018-06-14T15:39:19.845Z,10.43
2018-06-14T15:41:47.310Z,11.57
2018-06-14T15:44:14.776Z,12.90
2018-06-14T15:46:42.206Z,11.30
2018-06-14T15:49:09.596Z,11.00
2018-06-14T15:51:37.024Z,8.17
2018-06-14T15:54:04.560Z,9.47
2018-06-14T15:56:38.789Z,8.37
2018-06-14T15:59:08.732Z,11.30
2018-06-14T16:01:36.313Z,17.70
2018-06-14T16:04:04.386Z,10.23
2018-06-14T16:06:32.013Z,10.93
2018-06-14T16:08:59.393Z,14.07
2018-06-14T16:11:27.025Z,11.23
2018-06-14T16:13:54.394Z,9.80
2018-06-14T16:16:22.052Z,11.47
2018-06-14T16:18:49.400Z,10.90
2018-06-14T16:21:16.839Z,11.17
2018-06-14T16:23:44.394Z,11.50
2018-06-14T16:26:11.778Z,12.47
2018-06-14T16:28:39.314Z,12.73
2018-06-14T16:31:06.810Z,15.70
2018-06-14T16:33:34.238Z,11.47
2018-06-14T16:36:01.637Z,11.00
2018-06-14T16:38:29.363Z,12.37
2018-06-14T16:40:56.680Z,11.63
2018-06-14T16:43:24.285Z,13.27
2018-06-14T16:45:51.637Z,12.30
2018-06-14T16:48:19.059Z,10.77
2018-06-14T16:50:46.724Z,14.10
2018-06-14T16:53:14.291Z,10.90
2018-06-14T16:55:41.875Z,10.33
2018-06-14T16:58:09.230Z,11.40
2018-06-14T17:00:36.627Z,11.63
2018-06-14T17:03:04.083Z,9.87
2018-06-14T17:05:31.599Z,11.80
2018-06-14T17:07:58.929Z,9.00
2018-06-14T17:10:26.314Z,10.23
2018-06-14T17:12:53.757Z,10.67
2018-06-14T17:15:21.163Z,9.73
2018-06-14T17:17:48.534Z,12.37
2018-06-14T17:20:16.127Z,9.00
2018-06-14T17:22:43.658Z,9.87
2018-06-14T17:25:11.123Z,10.83
2018-06-14T17:27:38.480Z,8.70
2018-06-14T17:30:06.615Z,9.40
2018-06-14T17:32:34.134Z,10.83
2018-06-14T17:35:01.476Z,7.63
2018-06-14T17:37:28.990Z,9.10
2018-06-14T17:39:56.555Z,8.80
2018-06-14T17:42:23.996Z,8.83
2018-06-14T17:44:51.332Z,9.77
2018-06-14T17:47:18.708Z,8.77
2018-06-14T17:49:47.115Z,9.50
2018-06-14T17:52:14.458Z,8.60
2018-06-14T17:54:41.974Z,8.00
2018-06-14T17:57:09.346Z,8.10
2018-06-14T17:59:36.760Z,7.57
2018-06-14T18:02:04.173Z,8.27
2018-06-14T18:04:31.680Z,8.20
2018-06-14T18:06:59.023Z,8.30
2018-06-14T18:09:26.397Z,8.33
2018-06-14T18:11:53.850Z,10.40
2018-06-14T18:14:21.210Z,9.03
2018-06-14T18:16:48.720Z,9.90
2018-06-14T18:19:16.294Z,9.50
2018-06-14T18:21:43.703Z,8.53
2018-06-14T18:24:11.090Z,9.27
2018-06-14T18:26:38.539Z,9.07
2018-06-14T18:29:05.935Z,8.50
2018-06-14T18:31:33.491Z,9.80
2018-06-14T18:34:00.853Z,9.20
2018-06-14T18:36:28.231Z,7.60
2018-06-14T18:38:55.713Z,9.20
2018-06-14T18:41:23.111Z,9.20
2018-06-14T18:43:50.448Z,8.63
2018-06-14T18:46:17.785Z,9.20
2018-06-14T18:48:45.254Z,9.70
2018-06-14T18:51:12.684Z,8.70
2018-06-14T18:53:40.081Z,10.37
2018-06-14T18:56:07.700Z,9.60
2018-06-14T18:58:35.092Z,7.50
2018-06-14T19:01:02.555Z,12.00
2018-06-14T19:03:30.084Z,8.07
2018-06-14T19:05:57.537Z,9.47
2018-06-14T19:08:25.022Z,9.67
2018-06-14T19:10:52.454Z,7.73
2018-06-14T19:13:19.849Z,8.87
2018-06-14T19:15:47.346Z,8.43
2018-06-14T19:18:14.731Z,8.33
2018-06-14T19:20:42.120Z,8.73
2018-06-14T19:23:09.555Z,9.10
2018-06-14T19:25:37.225Z,9.67
2018-06-14T19:28:04.694Z,8.57
2018-06-14T19:30:32.041Z,9.30
2018-06-14T19:32:59.424Z,10.00
2018-06-14T19:35:26.859Z,9.50
2018-06-14T19:37:54.217Z,9.13
2018-06-14T19:40:22.047Z,9.03
2018-06-14T19:42:49.561Z,11.50
2018-06-14T19:45:16.885Z,14.20
2018-06-14T19:47:44.341Z,13.93
2018-06-14T19:50:11.757Z,15.13
2018-06-14T19:52:39.308Z,16.83
2018-06-14T19:55:06.779Z,15.90
2018-06-14T19:57:34.139Z,15.03
2018-06-14T20:00:01.571Z,14.90
2018-06-14T20:02:28.980Z,15.73
2018-06-14T20:04:56.616Z,15.70
2018-06-14T20:07:24.060Z,14.40
2018-06-14T20:09:51.394Z,15.20
2018-06-14T20:12:18.970Z,14.80
2018-06-14T20:14:46.352Z,14.83
2018-06-14T20:17:13.757Z,14.20
2018-06-14T20:19:41.166Z,13.93
2018-06-14T20:22:08.626Z,13.83
2018-06-14T20:24:37.080Z,15.47
2018-06-14T20:27:04.503Z,13.60
2018-06-14T20:29:31.888Z,14.43
2018-06-14T20:31:59.344Z,12.87
2018-06-14T20:34:26.740Z,13.40
2018-06-14T20:36:54.425Z,15.97
2018-06-14T20:39:21.801Z,14.13
2018-06-14T20:41:49.259Z,14.87
2018-06-14T20:44:16.828Z,15.17
2018-06-14T20:46:44.204Z,14.97
2018-06-14T20:49:11.590Z,17.10
2018-06-14T20:51:39.125Z,15.90
2018-06-14T20:54:06.539Z,15.70
2018-06-14T20:56:33.908Z,16.17
2018-06-14T20:59:01.487Z,14.53
2018-06-14T21:01:28.914Z,13.27
2018-06-14T21:03:56.700Z,14.20
2018-06-14T21:06:24.367Z,13.83
2018-06-14T21:08:51.711Z,14.53
2018-06-14T21:11:19.071Z,13.90
2018-06-14T21:13:46.432Z,12.80
2018-06-14T21:16:14.157Z,11.70
2018-06-14T21:18:41.552Z,14.13
2018-06-14T21:21:08.884Z,13.60
2018-06-14T21:23:36.236Z,12.00
2018-06-14T21:26:03.588Z,13.13
2018-06-14T21:28:30.919Z,14.67
2018-06-14T21:30:58.263Z,13.40
2018-06-14T21:33:25.692Z,14.23
2018-06-14T21:35:53.138Z,14.37
2018-06-14T21:38:20.455Z,15.63
2018-06-14T21:40:47.950Z,15.10
2018-06-14T21:43:15.260Z,15.40
2018-06-14T21:45:42.620Z,15.40
2018-06-14T21:48:09.967Z,16.30
2018-06-14T21:50:37.356Z,15.47
2018-06-14T21:53:04.689Z,15.20
2018-06-14T21:55:32.159Z,18.37
2018-06-14T21:57:59.699Z,16.63
2018-06-14T22:00:27.062Z,20.47
2018-06-14T22:02:59.955Z,16.50
2018-06-14T22:05:27.592Z,16.10
2018-06-14T22:07:54.929Z,15.57
2018-06-14T22:10:22.323Z,15.57
2018-06-14T22:12:49.721Z,16.20
2018-06-14T22:15:17.603Z,15.03
2018-06-14T22:17:44.926Z,14.87
2018-06-14T22:20:12.536Z,16.37
2018-06-14T22:22:39.987Z,16.60
2018-06-14T22:25:07.343Z,17.13
2018-06-14T22:27:34.808Z,17.70
2018-06-14T22:30:02.411Z,16.90
2018-06-14T22:32:29.803Z,17.23
2018-06-14T22:35:02.777Z,16.23
2018-06-14T22:37:30.099Z,18.40
2018-06-14T22:39:57.483Z,20.63
2018-06-14T22:42:24.856Z,17.50
2018-06-14T22:44:52.194Z,16.20
2018-06-14T22:47:26.335Z,18.60
2018-06-14T22:49:53.667Z,16.07
2018-06-14T22:52:55.138Z,16.70
2018-06-14T22:55:23.431Z,16.17
2018-06-14T22:57:50.851Z,16.80
2018-06-14T23:02:32.776Z,17.83
2018-06-14T23:05:00.182Z,16.20
2018-06-14T23:07:27.531Z,16.73
2018-06-14T23:10:09.560Z,17.23
2018-06-14T23:12:36.943Z,17.57
2018-06-14T23:15:04.320Z,19.07
2018-06-14T23:17:31.642Z,18.10
2018-06-14T23:19:58.971Z,18.10
2018-06-14T23:22:26.413Z,19.47
2018-06-14T23:24:53.791Z,20.27
2018-06-14T23:27:21.139Z,18.70
2018-06-14T23:29:48.492Z,19.37
2018-06-14T23:32:15.971Z,17.40
2018-06-14T23:34:43.340Z,18.13
2018-06-14T23:37:10.655Z,18.77
2018-06-14T23:39:38.030Z,21.13
2018-06-14T23:42:05.400Z,20.10
2018-06-14T23:44:32.863Z,21.20
2018-06-14T23:47:00.204Z,19.63
2018-06-14T23:49:27.719Z,22.30
2018-06-14T23:51:55.448Z,21.50
2018-06-14T23:54:22.778Z,20.80
2018-06-14T23:56:50.107Z,20.80
2018-06-14T23:59:17.475Z,20.80
